createdAt,value
2023-03-03T00:01:27.950Z,100272.36
2023-03-03T00:03:55.677Z,100269.23
2023-03-03T00:06:24.739Z,100265.70
2023-03-03T00:08:52.610Z,100260.55
2023-03-03T00:11:24.072Z,100259.80
2023-03-03T00:13:55.271Z,100254.52
2023-03-03T00:16:35.848Z,100249.23
2023-03-03T00:19:14.482Z,100243.10
2023-03-03T00:21:47.081Z,100242.74
2023-03-03T00:24:24.872Z,100239.59
2023-03-03T00:26:56.232Z,100233.61
2023-03-03T00:29:45.924Z,100231.06
2023-03-03T00:32:16.982Z,100228.05
2023-03-03T00:34:44.842Z,100227.45
2023-03-03T00:37:34.324Z,100226.51
2023-03-03T00:40:23.701Z,100220.70
2023-03-03T00:42:55.308Z,100215.58
2023-03-03T00:45:44.537Z,100216.01
2023-03-03T00:48:26.730Z,100211.21
2023-03-03T00:50:55.940Z,100211.46
2023-03-03T00:53:24.217Z,100205.16
2023-03-03T00:55:52.165Z,100204.33
2023-03-03T00:58:21.425Z,100201.81
2023-03-03T01:00:50.996Z,100199.79
2023-03-03T01:03:21.964Z,100198.55
2023-03-03T01:05:50.038Z,100198.70
2023-03-03T01:08:18.997Z,100194.57
2023-03-03T01:10:51.519Z,100195.23
2023-03-03T01:13:20.971Z,100190.05
2023-03-03T01:15:48.366Z,100186.33
2023-03-03T01:18:15.729Z,100182.23
2023-03-03T01:20:43.389Z,100180.10
2023-03-03T01:23:13.729Z,100175.84
2023-03-03T01:25:43.116Z,100174.88
2023-03-03T01:28:10.578Z,100169.17
2023-03-03T01:30:39.022Z,100165.42
2023-03-03T01:33:08.078Z,100166.83
2023-03-03T01:35:45.657Z,100166.48
2023-03-03T01:38:14.894Z,100161.54
2023-03-03T01:40:42.372Z,100158.03
2023-03-03T01:43:14.620Z,100158.02
2023-03-03T01:46:02.051Z,100157.52
2023-03-03T01:48:38.564Z,100154.49
2023-03-03T01:51:23.583Z,100154.89
2023-03-03T01:53:56.328Z,100153.56
2023-03-03T01:56:24.458Z,100150.50
2023-03-03T01:58:57.625Z,100145.25
2023-03-03T02:01:29.252Z,100138.81
2023-03-03T02:04:01.379Z,100140.32
2023-03-03T02:06:33.181Z,100139.27
2023-03-03T02:09:06.827Z,100136.23
2023-03-03T02:11:36.109Z,100133.14
2023-03-03T02:14:04.052Z,100132.03
2023-03-03T02:16:39.773Z,100132.15
2023-03-03T02:19:22.043Z,100133.83
2023-03-03T02:21:49.836Z,100130.63
2023-03-03T02:24:35.079Z,100132.30
2023-03-03T02:27:07.107Z,100125.96
2023-03-03T02:29:35.328Z,100123.73
2023-03-03T02:32:04.979Z,100121.55
2023-03-03T02:34:47.990Z,100123.59
2023-03-03T02:37:15.887Z,100120.92
2023-03-03T02:39:44.432Z,100116.51
2023-03-03T02:42:18.592Z,100114.54
2023-03-03T02:44:54.979Z,100115.80
2023-03-03T02:47:22.637Z,100109.01
2023-03-03T02:49:51.281Z,100111.96
2023-03-03T02:52:18.932Z,100107.46
2023-03-03T02:54:47.262Z,100107.29
2023-03-03T02:57:14.787Z,100106.79
2023-03-03T02:59:42.556Z,100101.29
2023-03-03T03:02:12.594Z,100101.05
2023-03-03T03:04:40.031Z,100102.91
2023-03-03T03:07:09.033Z,100104.06
2023-03-03T03:09:37.872Z,100105.33
2023-03-03T03:12:05.472Z,100101.25
2023-03-03T03:14:34.697Z,100101.11
2023-03-03T03:17:02.673Z,100097.82
2023-03-03T03:19:30.522Z,100099.79
2023-03-03T03:22:00.806Z,100098.81
2023-03-03T03:24:29.199Z,100092.41
2023-03-03T03:27:00.810Z,100095.30
2023-03-03T03:29:28.463Z,100093.95
2023-03-03T03:31:57.277Z,100088.88
2023-03-03T03:34:25.173Z,100085.17
2023-03-03T03:36:56.388Z,100085.24
2023-03-03T03:39:44.114Z,100083.65
2023-03-03T03:42:12.384Z,100076.45
2023-03-03T03:44:40.213Z,100071.17
2023-03-03T03:47:09.499Z,100071.38
2023-03-03T03:49:37.661Z,100072.11
2023-03-03T03:52:05.801Z,100069.83
2023-03-03T03:54:35.333Z,100069.59
2023-03-03T03:57:02.833Z,100067.33
2023-03-03T03:59:31.971Z,100065.89
2023-03-03T04:02:01.395Z,100060.72
2023-03-03T04:04:29.496Z,100062.19
2023-03-03T04:06:57.185Z,100061.13
2023-03-03T04:09:24.547Z,100061.99
2023-03-03T04:11:52.168Z,100055.09
2023-03-03T04:14:23.178Z,100048.89
2023-03-03T04:16:51.156Z,100047.81
2023-03-03T04:19:19.025Z,100042.52
2023-03-03T04:21:52.335Z,100039.41
2023-03-03T04:24:19.873Z,100037.80
2023-03-03T04:26:47.827Z,100039.33
2023-03-03T04:29:16.051Z,100036.17
2023-03-03T04:31:43.887Z,100031.77
2023-03-03T04:34:12.328Z,100029.65
2023-03-03T04:36:39.894Z,100032.17
2023-03-03T04:39:08.398Z,100027.06
2023-03-03T04:41:36.092Z,100025.39
2023-03-03T04:44:04.428Z,100025.83
2023-03-03T04:46:32.532Z,100017.74
2023-03-03T04:49:00.401Z,100019.23
2023-03-03T04:51:28.103Z,100022.09
2023-03-03T04:53:56.213Z,100021.75
2023-03-03T04:56:24.458Z,100021.05
2023-03-03T04:58:52.093Z,100017.77
2023-03-03T05:01:19.573Z,100015.30
2023-03-03T05:03:47.599Z,100015.64
2023-03-03T05:06:15.036Z,100020.05
2023-03-03T05:08:42.952Z,100017.51
2023-03-03T05:11:10.420Z,100016.00
2023-03-03T05:13:39.921Z,100016.91
2023-03-03T05:16:07.756Z,100015.11
2023-03-03T05:18:35.195Z,100012.92
2023-03-03T05:21:03.695Z,100012.65
2023-03-03T05:23:31.614Z,100009.36
2023-03-03T05:26:03.141Z,100008.78
2023-03-03T05:28:31.010Z,100006.92
2023-03-03T05:30:58.778Z,100009.30
2023-03-03T05:33:26.505Z,100005.35
2023-03-03T05:35:55.840Z,100008.86
2023-03-03T05:38:24.103Z,100006.75
2023-03-03T05:40:51.651Z,100002.86
2023-03-03T05:43:19.625Z,100003.91
2023-03-03T05:45:47.134Z,100003.08
2023-03-03T05:48:14.544Z,100001.13
2023-03-03T05:50:42.664Z,100001.68
2023-03-03T05:53:10.412Z,99996.84
2023-03-03T05:55:37.824Z,99996.80
2023-03-03T05:58:05.177Z,99995.20
2023-03-03T06:00:32.588Z,99993.72
2023-03-03T06:03:01.015Z,99988.98
2023-03-03T06:05:31.523Z,99990.12
2023-03-03T06:08:00.643Z,99987.30
2023-03-03T06:10:28.034Z,99988.98
2023-03-03T06:12:55.910Z,99987.02
2023-03-03T06:15:23.433Z,99985.92
2023-03-03T06:17:52.635Z,99985.34
2023-03-03T06:20:20.533Z,99986.81
2023-03-03T06:22:47.935Z,99985.68
2023-03-03T06:25:16.858Z,99979.98
2023-03-03T06:27:44.751Z,99979.48
2023-03-03T06:30:16.368Z,99980.69
2023-03-03T06:32:43.867Z,99979.86
2023-03-03T06:35:11.504Z,99980.38
2023-03-03T06:37:39.116Z,99979.19
2023-03-03T06:40:07.594Z,99977.95
2023-03-03T06:42:38.547Z,99969.45
2023-03-03T06:45:06.805Z,99975.45
2023-03-03T06:47:34.728Z,99975.09
2023-03-03T06:50:04.769Z,99966.27
2023-03-03T06:52:32.481Z,99967.77
2023-03-03T06:55:01.295Z,99965.41
2023-03-03T06:57:30.949Z,99959.75
2023-03-03T07:00:20.064Z,99953.08
2023-03-03T07:03:15.636Z,99954.88
2023-03-03T07:05:44.824Z,99948.29
2023-03-03T07:08:20.094Z,99945.82
2023-03-03T07:10:48.064Z,99946.64
2023-03-03T07:13:23.373Z,99945.59
2023-03-03T07:15:52.984Z,99942.73
2023-03-03T07:18:35.577Z,99946.04
2023-03-03T07:21:27.375Z,99946.38
2023-03-03T07:23:55.000Z,99943.09
2023-03-03T07:26:30.491Z,99941.31
2023-03-03T07:29:09.768Z,99942.67
2023-03-03T07:31:39.199Z,99939.09
2023-03-03T07:34:25.290Z,99931.85
2023-03-03T07:37:04.450Z,99935.80
2023-03-03T07:39:37.777Z,99936.86
2023-03-03T07:42:15.607Z,99935.67
2023-03-03T07:44:43.263Z,99937.48
2023-03-03T07:47:37.065Z,99934.21
2023-03-03T07:50:18.398Z,99927.80
2023-03-03T07:52:56.376Z,99931.40
2023-03-03T07:55:32.852Z,99931.59
2023-03-03T07:58:15.250Z,99929.88
2023-03-03T08:01:13.086Z,99927.16
2023-03-03T08:03:40.551Z,99920.67
2023-03-03T08:06:30.438Z,99919.00
2023-03-03T08:09:19.319Z,99916.92
2023-03-03T08:12:02.078Z,99915.22
2023-03-03T08:14:31.500Z,99910.70
2023-03-03T08:17:00.573Z,99908.17
2023-03-03T08:19:29.997Z,99905.45
2023-03-03T08:22:17.838Z,99904.95
2023-03-03T08:24:47.035Z,99900.68
2023-03-03T08:27:14.387Z,99904.73
2023-03-03T08:29:41.777Z,99900.79
2023-03-03T08:32:09.320Z,99899.52
2023-03-03T08:34:37.283Z,99898.59
2023-03-03T08:37:09.861Z,99896.14
2023-03-03T08:39:37.318Z,99894.91
2023-03-03T08:42:05.063Z,99893.67
2023-03-03T08:44:32.818Z,99889.86
2023-03-03T08:47:00.909Z,99884.49
2023-03-03T08:49:35.052Z,99886.20
2023-03-03T08:52:02.448Z,99882.94
2023-03-03T08:54:30.222Z,99872.67
2023-03-03T08:56:58.406Z,99872.86
2023-03-03T08:59:25.925Z,99864.97
2023-03-03T09:01:53.364Z,99862.66
2023-03-03T09:04:21.669Z,99864.75
2023-03-03T09:06:49.457Z,99862.38
2023-03-03T09:09:17.522Z,99854.93
2023-03-03T09:11:44.889Z,99856.93
2023-03-03T09:14:14.461Z,99860.61
2023-03-03T09:16:50.088Z,99852.67
2023-03-03T09:19:30.354Z,99843.67
2023-03-03T09:22:19.451Z,99850.08
2023-03-03T09:24:47.745Z,99844.37
2023-03-03T09:27:39.260Z,99837.67
2023-03-03T09:30:25.927Z,99834.21
2023-03-03T09:32:56.645Z,99834.23
2023-03-03T09:35:37.234Z,99831.23
2023-03-03T09:38:25.600Z,99820.34
2023-03-03T09:41:02.722Z,99829.23
2023-03-03T09:44:16.821Z,99823.23
2023-03-03T09:47:03.591Z,99810.17
2023-03-03T09:49:32.915Z,99805.90
2023-03-03T09:52:23.088Z,99808.80
2023-03-03T09:55:02.807Z,99801.68
2023-03-03T09:57:55.726Z,99794.45
2023-03-03T10:00:28.990Z,99784.92
2023-03-03T10:02:59.327Z,99781.13
2023-03-03T10:05:39.683Z,99770.80
2023-03-03T10:08:19.416Z,99768.03
2023-03-03T10:10:53.845Z,99767.66
2023-03-03T10:13:42.756Z,99756.63
2023-03-03T10:16:36.009Z,99758.70
2023-03-03T10:19:35.464Z,99759.62
2023-03-03T10:22:24.755Z,99753.08
2023-03-03T10:24:58.471Z,99756.23
2023-03-03T10:27:34.377Z,99751.08
2023-03-03T10:30:14.400Z,99753.53
2023-03-03T10:33:01.775Z,99750.61
2023-03-03T10:35:42.593Z,99740.46
2023-03-03T10:38:19.897Z,99741.06
2023-03-03T10:40:59.069Z,99730.41
2023-03-03T10:43:53.213Z,99720.44
2023-03-03T10:46:33.388Z,99714.31
2023-03-03T10:49:13.245Z,99714.85
2023-03-03T10:52:08.373Z,99712.02
2023-03-03T10:54:48.204Z,99706.98
2023-03-03T10:57:27.025Z,99703.83
2023-03-03T11:00:00.843Z,99703.32
2023-03-03T11:02:32.084Z,99699.27
2023-03-03T11:05:02.114Z,99695.72
2023-03-03T11:07:42.255Z,99692.99
2023-03-03T11:10:30.673Z,99688.39
2023-03-03T11:13:19.460Z,99686.40
2023-03-03T11:16:14.608Z,99681.31
2023-03-03T11:19:07.950Z,99677.69
2023-03-03T11:21:47.232Z,99671.54
2023-03-03T11:24:25.281Z,99670.17
2023-03-03T11:27:17.383Z,99662.98
2023-03-03T11:30:28.926Z,99660.77
2023-03-03T11:33:04.845Z,99662.64
2023-03-03T11:35:41.447Z,99659.85
2023-03-03T11:38:44.531Z,99658.56
2023-03-03T11:41:32.077Z,99654.94
2023-03-03T11:44:08.692Z,99652.59
2023-03-03T11:46:55.674Z,99651.02
2023-03-03T11:49:57.405Z,99649.27
2023-03-03T11:52:43.601Z,99651.15
2023-03-03T11:55:39.231Z,99643.05
2023-03-03T11:58:16.102Z,99643.46
2023-03-03T12:00:52.457Z,99644.34
2023-03-03T12:03:49.626Z,99641.02
2023-03-03T12:06:26.257Z,99641.85
2023-03-03T12:09:19.835Z,99641.95
2023-03-03T12:11:54.331Z,99638.80
2023-03-03T12:14:29.660Z,99636.88
2023-03-03T12:17:00.899Z,99637.05
2023-03-03T12:19:40.707Z,99634.48
2023-03-03T12:22:23.528Z,99633.16
2023-03-03T12:25:01.319Z,99626.23
2023-03-03T12:27:32.587Z,99623.61
2023-03-03T12:30:33.663Z,99618.45
2023-03-03T12:33:20.000Z,99621.25
2023-03-03T12:35:55.062Z,99617.70
2023-03-03T12:38:32.038Z,99617.58
2023-03-03T12:41:01.761Z,99612.35
2023-03-03T12:43:52.057Z,99612.07
2023-03-03T12:46:33.930Z,99607.86
2023-03-03T12:49:01.794Z,99605.64
2023-03-03T12:51:50.468Z,99601.58
2023-03-03T12:54:53.764Z,99602.42
2023-03-03T12:57:35.640Z,99595.50
2023-03-03T13:00:15.809Z,99593.18
2023-03-03T13:02:50.840Z,99586.02
2023-03-03T13:05:45.390Z,99584.12
2023-03-03T13:08:36.890Z,99586.59
2023-03-03T13:11:08.244Z,99583.29
2023-03-03T13:14:00.348Z,99581.96
2023-03-03T13:16:41.110Z,99578.48
2023-03-03T13:19:17.626Z,99575.32
2023-03-03T13:21:53.207Z,99571.14
2023-03-03T13:24:27.014Z,99568.59
2023-03-03T13:26:58.288Z,99563.77
2023-03-03T13:29:51.654Z,99564.98
2023-03-03T13:32:30.604Z,99562.73
2023-03-03T13:35:09.268Z,99560.60
2023-03-03T13:37:45.171Z,99562.07
2023-03-03T13:40:13.013Z,99554.33
2023-03-03T13:42:56.281Z,99555.29
2023-03-03T13:45:49.082Z,99551.09
2023-03-03T13:48:43.048Z,99547.02
2023-03-03T13:51:17.203Z,99540.83
2023-03-03T13:54:18.810Z,99544.77
2023-03-03T13:56:46.246Z,99538.74
2023-03-03T13:59:51.471Z,99537.52
2023-03-03T14:02:19.472Z,99530.52
2023-03-03T14:04:54.632Z,99532.04
2023-03-03T14:07:28.785Z,99528.83
2023-03-03T14:10:19.561Z,99527.76
2023-03-03T14:12:59.997Z,99524.06
2023-03-03T14:15:28.588Z,99522.63
2023-03-03T14:18:08.706Z,99520.98
2023-03-03T14:20:41.444Z,99516.42
2023-03-03T14:23:12.990Z,99516.43
2023-03-03T14:26:01.391Z,99515.27
2023-03-03T14:28:30.095Z,99509.34
2023-03-03T14:30:58.080Z,99504.14
2023-03-03T14:33:30.906Z,99505.31
2023-03-03T14:35:58.959Z,99502.33
2023-03-03T14:38:32.829Z,99503.75
2023-03-03T14:41:14.434Z,99503.01
2023-03-03T14:43:57.597Z,99502.77
2023-03-03T14:46:30.131Z,99501.27
2023-03-03T14:48:59.697Z,99498.05
2023-03-03T14:51:29.884Z,99495.88
2023-03-03T14:53:57.634Z,99494.27
2023-03-03T14:56:28.813Z,99494.97
2023-03-03T14:59:23.552Z,99495.83
2023-03-03T15:02:17.267Z,99496.34
2023-03-03T15:04:45.229Z,99498.02
2023-03-03T15:07:30.848Z,99497.36
2023-03-03T15:09:58.310Z,99500.36
2023-03-03T15:12:32.127Z,99496.77
2023-03-03T15:15:11.194Z,99497.21
2023-03-03T15:18:02.276Z,99497.52
2023-03-03T15:20:45.260Z,99498.38
2023-03-03T15:23:35.011Z,99500.71
2023-03-03T15:26:26.508Z,99501.14
2023-03-03T15:28:58.253Z,99499.55
2023-03-03T15:31:51.793Z,99503.80
2023-03-03T15:34:59.507Z,99499.90
2023-03-03T15:37:50.226Z,99498.23
2023-03-03T15:40:34.720Z,99499.25
2023-03-03T15:43:34.970Z,99502.92
2023-03-03T15:46:43.897Z,99504.41
2023-03-03T15:49:29.888Z,99508.48
2023-03-03T15:52:22.241Z,99506.59
2023-03-03T15:54:57.455Z,99504.55
2023-03-03T15:57:40.928Z,99504.09
2023-03-03T16:00:26.562Z,99507.92
2023-03-03T16:02:58.725Z,99504.25
2023-03-03T16:05:29.507Z,99503.84
2023-03-03T16:08:00.892Z,99503.88
2023-03-03T16:10:41.304Z,99507.39
2023-03-03T16:13:24.778Z,99505.61
2023-03-03T16:16:03.542Z,99505.55
2023-03-03T16:18:33.869Z,99504.70
2023-03-03T16:21:26.734Z,99503.43
2023-03-03T16:24:18.424Z,99504.49
2023-03-03T16:27:05.937Z,99499.00
2023-03-03T16:29:43.027Z,99504.23
2023-03-03T16:32:26.991Z,99507.59
2023-03-03T16:34:58.249Z,99515.77
2023-03-03T16:37:40.237Z,99514.11
2023-03-03T16:40:48.707Z,99521.39
2023-03-03T16:43:53.775Z,99522.61
2023-03-03T16:46:43.470Z,99523.55
2023-03-03T16:49:23.391Z,99519.44
2023-03-03T16:52:03.535Z,99521.56
2023-03-03T16:54:54.185Z,99520.41
2023-03-03T16:57:33.783Z,99519.10
2023-03-03T17:00:14.473Z,99520.05
2023-03-03T17:02:49.502Z,99516.16
2023-03-03T17:05:33.210Z,99517.06
2023-03-03T17:08:29.069Z,99517.54
2023-03-03T17:11:18.913Z,99515.71
2023-03-03T17:13:52.068Z,99510.73
2023-03-03T17:16:52.687Z,99510.52
2023-03-03T17:19:30.166Z,99509.92
2023-03-03T17:22:08.703Z,99507.52
2023-03-03T17:25:04.852Z,99510.06
2023-03-03T17:27:56.937Z,99515.59
2023-03-03T17:30:35.630Z,99516.38
2023-03-03T17:33:51.925Z,99517.30
2023-03-03T17:36:25.161Z,99517.44
2023-03-03T17:38:59.254Z,99516.02
2023-03-03T17:41:55.195Z,99516.72
2023-03-03T17:44:34.752Z,99518.83
2023-03-03T17:47:05.721Z,99516.45
2023-03-03T17:49:57.367Z,99513.41
2023-03-03T17:52:31.286Z,99514.61
2023-03-03T17:55:23.839Z,99510.33
2023-03-03T17:58:06.991Z,99518.85
2023-03-03T18:01:06.990Z,99512.64
2023-03-03T18:03:44.780Z,99513.88
2023-03-03T18:06:53.809Z,99513.75
2023-03-03T18:09:31.151Z,99509.46
2023-03-03T18:12:12.517Z,99514.61
2023-03-03T18:14:46.159Z,99512.44
2023-03-03T18:17:34.239Z,99516.11
2023-03-03T18:20:08.265Z,99510.30
2023-03-03T18:22:50.891Z,99509.84
2023-03-03T18:25:19.688Z,99503.25
2023-03-03T18:28:15.637Z,99505.27
2023-03-03T18:31:02.880Z,99507.45
2023-03-03T18:33:32.674Z,99508.67
2023-03-03T18:36:32.601Z,99509.83
2023-03-03T18:39:01.255Z,99510.23
2023-03-03T18:42:14.385Z,99512.96
2023-03-03T18:44:45.482Z,99511.77
2023-03-03T18:47:14.877Z,99511.69
2023-03-03T18:49:55.268Z,99521.31
2023-03-03T18:52:28.178Z,99515.33
2023-03-03T18:55:05.971Z,99518.85
2023-03-03T18:57:33.685Z,99520.88
2023-03-03T19:00:24.513Z,99518.09
2023-03-03T19:02:59.556Z,99521.38
2023-03-03T19:05:38.638Z,99517.38
2023-03-03T19:08:22.658Z,99516.58
2023-03-03T19:10:57.840Z,99516.85
2023-03-03T19:13:34.399Z,99516.01
2023-03-03T19:16:03.826Z,99518.08
2023-03-03T19:18:47.059Z,99519.91
2023-03-03T19:21:35.080Z,99517.23
2023-03-03T19:24:04.686Z,99524.56
2023-03-03T19:26:50.520Z,99523.09
2023-03-03T19:29:22.081Z,99521.45
2023-03-03T19:32:21.142Z,99520.67
2023-03-03T19:34:52.826Z,99523.64
2023-03-03T19:37:33.943Z,99523.80
2023-03-03T19:40:22.541Z,99520.56
2023-03-03T19:43:09.071Z,99524.27
2023-03-03T19:46:22.800Z,99527.55
2023-03-03T19:48:53.597Z,99523.92
2023-03-03T19:51:45.851Z,99525.81
2023-03-03T19:54:25.829Z,99516.79
2023-03-03T19:56:55.376Z,99519.52
2023-03-03T19:59:29.142Z,99522.71
2023-03-03T20:02:12.840Z,99524.52
2023-03-03T20:04:53.056Z,99523.36
2023-03-03T20:07:53.555Z,99524.51
2023-03-03T20:10:48.864Z,99522.26
2023-03-03T20:13:37.690Z,99529.53
2023-03-03T20:16:11.252Z,99531.03
2023-03-03T20:18:58.609Z,99524.83
2023-03-03T20:21:53.634Z,99526.90
2023-03-03T20:24:55.267Z,99522.59
2023-03-03T20:27:45.732Z,99524.02
2023-03-03T20:31:01.829Z,99519.58
2023-03-03T20:33:48.059Z,99518.39
2023-03-03T20:36:31.199Z,99517.92
2023-03-03T20:39:04.009Z,99514.54
2023-03-03T20:41:58.481Z,99523.33
2023-03-03T20:44:45.020Z,99521.50
2023-03-03T20:47:21.642Z,99524.91
2023-03-03T20:49:58.217Z,99524.39
2023-03-03T20:52:31.329Z,99521.89
2023-03-03T20:55:10.764Z,99518.33
2023-03-03T20:58:02.564Z,99521.56
2023-03-03T21:00:32.516Z,99523.14
2023-03-03T21:03:10.866Z,99524.80
2023-03-03T21:06:00.537Z,99525.84
2023-03-03T21:08:54.568Z,99526.52
2023-03-03T21:11:32.435Z,99525.84
2023-03-03T21:14:01.330Z,99526.52
2023-03-03T21:16:32.538Z,99528.24
2023-03-03T21:19:02.152Z,99529.71
2023-03-03T21:21:40.319Z,99530.70
2023-03-03T21:24:12.956Z,99529.00
2023-03-03T21:26:44.926Z,99531.48
2023-03-03T21:29:18.529Z,99529.98
2023-03-03T21:31:47.842Z,99532.36
2023-03-03T21:34:38.841Z,99530.87
2023-03-03T21:37:11.097Z,99535.52
2023-03-03T21:39:43.629Z,99540.95
2023-03-03T21:42:14.282Z,99543.19
2023-03-03T21:44:46.518Z,99542.82
2023-03-03T21:47:19.652Z,99546.47
2023-03-03T21:50:00.607Z,99551.44
2023-03-03T21:52:28.217Z,99550.84
2023-03-03T21:54:55.911Z,99554.33
2023-03-03T21:57:27.638Z,99554.80
2023-03-03T21:59:57.571Z,99552.98
2023-03-03T22:02:25.170Z,99555.48
2023-03-03T22:04:53.135Z,99563.50
2023-03-03T22:07:20.682Z,99566.64
2023-03-03T22:09:51.380Z,99567.85
2023-03-03T22:12:19.424Z,99564.04
2023-03-03T22:14:49.140Z,99564.95
2023-03-03T22:17:16.696Z,99569.05
2023-03-03T22:19:44.549Z,99567.67
2023-03-03T22:22:13.974Z,99568.05
2023-03-03T22:24:42.438Z,99564.51
2023-03-03T22:27:16.505Z,99565.66
2023-03-03T22:29:44.234Z,99564.41
2023-03-03T22:32:11.816Z,99566.44
2023-03-03T22:34:40.014Z,99567.83
2023-03-03T22:37:07.992Z,99562.74
2023-03-03T22:39:39.054Z,99559.89
2023-03-03T22:42:07.355Z,99558.39
2023-03-03T22:44:34.917Z,99560.53
2023-03-03T22:47:03.415Z,99557.40
2023-03-03T22:49:31.232Z,99561.36
2023-03-03T22:51:58.916Z,99565.23
2023-03-03T22:54:31.711Z,99565.84
2023-03-03T22:56:59.582Z,99568.02
2023-03-03T22:59:28.147Z,99570.16
2023-03-03T23:01:57.569Z,99570.43
2023-03-03T23:04:27.366Z,99565.98
2023-03-03T23:07:01.175Z,99566.70
2023-03-03T23:09:33.357Z,99571.03
2023-03-03T23:12:07.124Z,99572.30
2023-03-03T23:14:35.122Z,99575.90
2023-03-03T23:17:02.988Z,99577.08
2023-03-03T23:19:30.929Z,99581.27
2023-03-03T23:21:59.000Z,99581.96
2023-03-03T23:24:26.636Z,99580.75
2023-03-03T23:27:08.815Z,99586.61
2023-03-03T23:29:37.985Z,99586.77
2023-03-03T23:32:07.433Z,99588.11
2023-03-03T23:34:37.370Z,99587.55
2023-03-03T23:37:08.097Z,99584.23
2023-03-03T23:39:36.295Z,99581.11
2023-03-03T23:42:04.271Z,99580.00
2023-03-03T23:44:31.989Z,99579.41
2023-03-03T23:47:06.934Z,99572.17
2023-03-03T23:49:35.288Z,99574.65
2023-03-03T23:52:02.892Z,99568.32
2023-03-03T23:54:30.448Z,99565.30
2023-03-03T23:56:58.159Z,99559.75
2023-03-03T23:59:25.631Z,99557.08
